Impacts METAR Board
IDs:

KBMQ - Burnet Muni, TX, US

Updated at: 0500 UTC 19 Aug 2019
Potential Impact None Slight Moderate High
Time 18/17Z 18/18Z 18/19Z 18/20Z 18/21Z 18/22Z 18/23Z 19/00Z 19/01Z 19/02Z 19/03Z 19/04Z 19/05Z
Temp91 95 97 98 99 98 99 98 95 91 91 89 86
Dewpt65 63 64 63 61 62 62 63 63 64 65 66 67
Altim29.95 29.94 29.93 29.91 29.90 29.88 29.87 29.87 29.88 29.89 29.91 29.95 29.97
VIS10 10 10 10 10 10 10 10 10 10 10 10 10
CIG-- -- -- -- -- -- -- -- -- -- -- -- --
CoverCLRCLRCLRCLRCLRCLRCLRCLRCLRCLRCLRCLRCLR
FltCatVFRVFRVFRVFRVFRVFRVFRVFRVFRVFRVFRVFRVFR
WX--------------------------
WDir1701801501700150140130120150170170
WSpd8 9 7 7 4 6 10 7 3 6 11 7
WGst18 17 -- -- -- -- 14 -- -- -- -- 22 15
Raw hourly METARs
KBMQ 181653Z AUTO 17008G18KT 10SM CLR 33/18 A2995 RMK AO2 SLP118 T03280183 $
KBMQ 181753Z AUTO 18009G17KT 150V220 10SM CLR 35/17 A2994 RMK AO2 SLP115 T03500172 10350 20256 58005 $
KBMQ 181853Z AUTO 10SM CLR 36/18 A2993 RMK AO2 SLP110 T03610178 $
KBMQ 181953Z AUTO 15007KT 10SM CLR 37/17 A2991 RMK AO2 SLP106 T03670172 $
KBMQ 182053Z AUTO 17007KT 140V200 10SM CLR 37/16 A2990 RMK AO2 SLP102 T03720161 58013 $
KBMQ 182153Z AUTO VRB04KT 10SM CLR 37/17 A2988 RMK AO2 SLP095 T03670167 $
KBMQ 182253Z AUTO 15006G14KT 10SM CLR 37/17 A2987 RMK AO2 SLP094 T03720167 $
KBMQ 182353Z AUTO 14010KT 10SM CLR 37/17 A2987 RMK AO2 SLP094 T03670172 10378 20344 56008 $
KBMQ 190053Z AUTO 13007KT 10SM CLR 35/17 A2988 RMK AO2 SLP097 T03500172 $
KBMQ 190153Z AUTO 12003KT 10SM CLR 33/18 A2989 RMK AO2 SLP100 T03280178 $
KBMQ 190253Z AUTO 15006KT 10SM CLR 33/18 A2991 RMK AO2 SLP107 T03280183 53013 $
KBMQ 190353Z AUTO 17011G22KT 10SM CLR 32/19 A2995 RMK AO2 SLP118 T03170189 $
KBMQ 190453Z AUTO 17007G15KT 10SM CLR 30/19 A2997 RMK AO2 SLP125 T03000194 $



Page loaded:  05:24 UTC  |   10:24 PM Pacific  |   11:24 PM Mountain  |   12:24 AM Central  |   01:24 AM Eastern

 

ADVISORIES

FORECASTS

FORECASTS

OBSERVATIONS

USER TOOLS

ABOUT US